Strona główna
METAR-TAF:

METAR-TAF

Lotnisko :

Port lotniczy Bristol

Bristol, Anglia

Szerokość geograficzna: 51-23N, Długość geograficzna: 002-43W, wysokość: 189 m

Aktualna obserwacja pogody

Raport powstał 34 minut temu, godzina 05:20 UTC
Wiatr 8 kt od wschód
Temperatura 12°C
Wilgotność 82%
Ciśnienie 1034 hPa
Widzialność 10 km lub więcej

METAR: EGGD 280520Z AUTO 09008KT 9999 NCD 12/09 Q1034

czas: 06:54 (05:54 UTC)

Prognoza

Raport powstał 59 minut temu, godzina 04:55 UTC
Prognoza ważna od 28 godzina 06 UTC do 29 godzina 06 UTC
Wiatr 9 kt od wschód
Widzialność 10 km lub więcej
Brak chmur poniżej 1500 m i brak chmur cumulonimbus

TAF: EGGD 280455Z 2806/2906 10009KT CAVOK

Obserwacja i prognoza pogody dla ponad 4000 lotnisk (raport METAR i TAF).

Dostępne stacje oznaczono żółtymi i czerwonymi punktami na mapie.

Najedź kursorem aby zobaczyć nazwę stacji.

Kliknij aby zobaczyć obserwacje i prognozy pogody.

Aby zmienić mapę: kliknij na zielony przycisk z czarnym krzyżykiem, aby powiększyć; na zielony przycisk z myślnikiem, aby pomniejszyć; na zielone strzałki, aby przejść do map sąsiednich.


METAR-TAF: